sensor_id;sensor_type;location;lat;lon;timestamp;P1;durP1;ratioP1;P2;durP2;ratioP2
32812;SDS011;19162;48.254;11.454;2023-03-31T00:02:42;6.82;;;4.63;;
32812;SDS011;19162;48.254;11.454;2023-03-31T00:05:42;6.60;;;4.63;;
32812;SDS011;19162;48.254;11.454;2023-03-31T00:08:47;6.80;;;4.50;;
32812;SDS011;19162;48.254;11.454;2023-03-31T00:11:50;9.02;;;4.82;;
32812;SDS011;19162;48.254;11.454;2023-03-31T00:14:51;5.57;;;4.50;;
32812;SDS011;19162;48.254;11.454;2023-03-31T00:17:51;7.00;;;4.70;;
32812;SDS011;19162;48.254;11.454;2023-03-31T00:20:52;6.43;;;4.40;;
32812;SDS011;19162;48.254;11.454;2023-03-31T00:23:53;5.07;;;4.22;;
32812;SDS011;19162;48.254;11.454;2023-03-31T00:26:53;5.50;;;3.92;;
32812;SDS011;19162;48.254;11.454;2023-03-31T00:29:53;5.05;;;4.55;;
32812;SDS011;19162;48.254;11.454;2023-03-31T00:32:54;6.43;;;4.68;;
32812;SDS011;19162;48.254;11.454;2023-03-31T00:35:55;8.95;;;4.82;;
32812;SDS011;19162;48.254;11.454;2023-03-31T00:38:56;6.03;;;4.70;;
32812;SDS011;19162;48.254;11.454;2023-03-31T00:42:02;5.63;;;4.55;;
32812;SDS011;19162;48.254;11.454;2023-03-31T00:48:18;11.63;;;5.03;;
32812;SDS011;19162;48.254;11.454;2023-03-31T00:51:20;5.13;;;4.32;;
32812;SDS011;19162;48.254;11.454;2023-03-31T00:54:22;8.82;;;4.95;;
32812;SDS011;19162;48.254;11.454;2023-03-31T00:57:24;6.10;;;5.13;;
32812;SDS011;19162;48.254;11.454;2023-03-31T01:00:27;6.68;;;5.32;;
32812;SDS011;19162;48.254;11.454;2023-03-31T01:03:30;5.93;;;4.93;;
32812;SDS011;19162;48.254;11.454;2023-03-31T01:06:32;7.15;;;5.45;;
32812;SDS011;19162;48.254;11.454;2023-03-31T01:09:32;6.32;;;5.10;;
32812;SDS011;19162;48.254;11.454;2023-03-31T01:12:34;7.15;;;5.88;;
32812;SDS011;19162;48.254;11.454;2023-03-31T01:15:36;5.28;;;4.78;;
32812;SDS011;19162;48.254;11.454;2023-03-31T01:18:36;5.63;;;5.05;;
32812;SDS011;19162;48.254;11.454;2023-03-31T01:25:05;6.43;;;4.97;;
32812;SDS011;19162;48.254;11.454;2023-03-31T01:28:13;6.22;;;5.10;;
32812;SDS011;19162;48.254;11.454;2023-03-31T01:34:34;7.35;;;5.55;;
32812;SDS011;19162;48.254;11.454;2023-03-31T01:37:46;7.55;;;5.15;;
32812;SDS011;19162;48.254;11.454;2023-03-31T01:46:54;6.47;;;5.03;;
32812;SDS011;19162;48.254;11.454;2023-03-31T01:59:28;8.15;;;5.28;;
32812;SDS011;19162;48.254;11.454;2023-03-31T02:02:31;6.15;;;5.30;;
32812;SDS011;19162;48.254;11.454;2023-03-31T02:05:34;9.27;;;6.63;;
32812;SDS011;19162;48.254;11.454;2023-03-31T02:08:37;6.40;;;5.40;;
32812;SDS011;19162;48.254;11.454;2023-03-31T02:11:40;7.50;;;5.50;;
32812;SDS011;19162;48.254;11.454;2023-03-31T02:14:44;6.85;;;5.00;;
32812;SDS011;19162;48.254;11.454;2023-03-31T02:17:46;8.18;;;5.38;;
32812;SDS011;19162;48.254;11.454;2023-03-31T02:23:48;6.47;;;5.70;;
32812;SDS011;19162;48.254;11.454;2023-03-31T02:27:03;7.20;;;5.93;;
32812;SDS011;19162;48.254;11.454;2023-03-31T02:30:06;7.30;;;6.10;;
32812;SDS011;19162;48.254;11.454;2023-03-31T02:33:06;5.78;;;5.28;;
32812;SDS011;19162;48.254;11.454;2023-03-31T02:36:07;7.83;;;5.07;;
32812;SDS011;19162;48.254;11.454;2023-03-31T02:39:08;6.38;;;5.72;;
32812;SDS011;19162;48.254;11.454;2023-03-31T02:42:08;8.48;;;5.53;;
32812;SDS011;19162;48.254;11.454;2023-03-31T02:48:29;9.15;;;5.75;;
32812;SDS011;19162;48.254;11.454;2023-03-31T02:57:47;6.50;;;5.32;;
32812;SDS011;19162;48.254;11.454;2023-03-31T03:07:12;9.07;;;5.10;;
32812;SDS011;19162;48.254;11.454;2023-03-31T03:10:18;6.10;;;5.55;;
32812;SDS011;19162;48.254;11.454;2023-03-31T03:16:41;4.88;;;4.30;;
32812;SDS011;19162;48.254;11.454;2023-03-31T03:19:43;8.93;;;5.43;;
32812;SDS011;19162;48.254;11.454;2023-03-31T03:22:43;6.28;;;4.75;;
32812;SDS011;19162;48.254;11.454;2023-03-31T03:25:43;6.67;;;5.37;;
32812;SDS011;19162;48.254;11.454;2023-03-31T03:28:45;6.50;;;5.55;;
32812;SDS011;19162;48.254;11.454;2023-03-31T03:31:45;7.25;;;5.50;;
32812;SDS011;19162;48.254;11.454;2023-03-31T03:34:45;10.60;;;6.00;;
32812;SDS011;19162;48.254;11.454;2023-03-31T03:37:45;6.53;;;5.30;;
32812;SDS011;19162;48.254;11.454;2023-03-31T03:40:45;10.52;;;5.32;;
32812;SDS011;19162;48.254;11.454;2023-03-31T03:43:45;9.20;;;5.63;;
32812;SDS011;19162;48.254;11.454;2023-03-31T03:46:46;6.35;;;5.20;;
32812;SDS011;19162;48.254;11.454;2023-03-31T03:49:46;9.05;;;5.40;;
32812;SDS011;19162;48.254;11.454;2023-03-31T03:52:48;8.32;;;5.35;;
32812;SDS011;19162;48.254;11.454;2023-03-31T03:55:48;7.50;;;5.50;;
32812;SDS011;19162;48.254;11.454;2023-03-31T03:58:48;10.57;;;5.70;;
32812;SDS011;19162;48.254;11.454;2023-03-31T04:01:49;7.83;;;5.50;;
32812;SDS011;19162;48.254;11.454;2023-03-31T04:04:49;10.35;;;5.95;;
32812;SDS011;19162;48.254;11.454;2023-03-31T04:07:49;7.53;;;5.15;;
32812;SDS011;19162;48.254;11.454;2023-03-31T04:10:50;7.85;;;5.68;;
32812;SDS011;19162;48.254;11.454;2023-03-31T04:13:50;8.52;;;5.55;;
32812;SDS011;19162;48.254;11.454;2023-03-31T04:16:50;10.20;;;5.95;;
32812;SDS011;19162;48.254;11.454;2023-03-31T04:19:51;6.32;;;5.28;;
32812;SDS011;19162;48.254;11.454;2023-03-31T04:22:52;6.68;;;6.07;;
32812;SDS011;19162;48.254;11.454;2023-03-31T04:25:52;9.55;;;6.07;;
32812;SDS011;19162;48.254;11.454;2023-03-31T04:28:52;8.67;;;5.80;;
32812;SDS011;19162;48.254;11.454;2023-03-31T04:31:53;8.87;;;5.97;;
32812;SDS011;19162;48.254;11.454;2023-03-31T04:34:57;7.03;;;5.78;;
32812;SDS011;19162;48.254;11.454;2023-03-31T04:38:03;7.57;;;5.70;;
32812;SDS011;19162;48.254;11.454;2023-03-31T04:41:03;7.70;;;6.22;;
32812;SDS011;19162;48.254;11.454;2023-03-31T04:44:03;8.48;;;6.82;;
32812;SDS011;19162;48.254;11.454;2023-03-31T04:47:04;9.13;;;6.15;;
32812;SDS011;19162;48.254;11.454;2023-03-31T04:50:06;8.05;;;6.50;;
32812;SDS011;19162;48.254;11.454;2023-03-31T04:53:06;8.45;;;6.13;;
32812;SDS011;19162;48.254;11.454;2023-03-31T04:56:06;13.07;;;6.60;;
32812;SDS011;19162;48.254;11.454;2023-03-31T04:59:06;7.57;;;6.60;;
32812;SDS011;19162;48.254;11.454;2023-03-31T05:02:08;8.60;;;6.13;;
32812;SDS011;19162;48.254;11.454;2023-03-31T05:05:08;10.18;;;6.22;;
32812;SDS011;19162;48.254;11.454;2023-03-31T05:08:09;8.85;;;5.80;;
32812;SDS011;19162;48.254;11.454;2023-03-31T05:11:09;13.45;;;7.13;;
32812;SDS011;19162;48.254;11.454;2023-03-31T05:14:10;10.57;;;6.57;;
32812;SDS011;19162;48.254;11.454;2023-03-31T05:17:10;11.23;;;6.87;;
32812;SDS011;19162;48.254;11.454;2023-03-31T05:20:10;11.25;;;6.72;;
32812;SDS011;19162;48.254;11.454;2023-03-31T05:23:12;10.25;;;7.57;;
32812;SDS011;19162;48.254;11.454;2023-03-31T05:26:13;7.82;;;6.30;;
32812;SDS011;19162;48.254;11.454;2023-03-31T05:29:13;8.40;;;7.05;;
32812;SDS011;19162;48.254;11.454;2023-03-31T05:32:15;8.68;;;6.93;;
32812;SDS011;19162;48.254;11.454;2023-03-31T05:35:15;8.75;;;6.93;;
32812;SDS011;19162;48.254;11.454;2023-03-31T05:38:15;10.23;;;7.00;;
32812;SDS011;19162;48.254;11.454;2023-03-31T05:41:16;8.17;;;6.97;;
32812;SDS011;19162;48.254;11.454;2023-03-31T05:44:16;10.55;;;7.25;;
32812;SDS011;19162;48.254;11.454;2023-03-31T05:47:16;11.07;;;6.87;;
32812;SDS011;19162;48.254;11.454;2023-03-31T05:50:16;7.53;;;6.57;;
32812;SDS011;19162;48.254;11.454;2023-03-31T05:53:16;7.40;;;6.03;;
32812;SDS011;19162;48.254;11.454;2023-03-31T05:56:16;9.07;;;6.55;;
32812;SDS011;19162;48.254;11.454;2023-03-31T05:59:17;8.00;;;6.25;;
32812;SDS011;19162;48.254;11.454;2023-03-31T06:02:17;10.25;;;6.95;;
32812;SDS011;19162;48.254;11.454;2023-03-31T06:05:17;7.45;;;6.60;;
32812;SDS011;19162;48.254;11.454;2023-03-31T06:08:18;11.03;;;7.13;;
32812;SDS011;19162;48.254;11.454;2023-03-31T06:11:19;9.95;;;7.55;;
32812;SDS011;19162;48.254;11.454;2023-03-31T06:14:19;9.65;;;7.20;;
32812;SDS011;19162;48.254;11.454;2023-03-31T06:17:20;8.27;;;6.82;;
32812;SDS011;19162;48.254;11.454;2023-03-31T06:20:20;12.57;;;7.77;;
32812;SDS011;19162;48.254;11.454;2023-03-31T06:23:20;10.43;;;7.95;;
32812;SDS011;19162;48.254;11.454;2023-03-31T06:26:21;10.70;;;7.78;;
32812;SDS011;19162;48.254;11.454;2023-03-31T06:29:25;9.20;;;7.45;;
32812;SDS011;19162;48.254;11.454;2023-03-31T06:32:26;8.43;;;7.63;;
32812;SDS011;19162;48.254;11.454;2023-03-31T06:35:26;10.43;;;9.30;;
32812;SDS011;19162;48.254;11.454;2023-03-31T06:38:26;9.27;;;8.23;;
32812;SDS011;19162;48.254;11.454;2023-03-31T06:41:27;8.93;;;7.88;;
32812;SDS011;19162;48.254;11.454;2023-03-31T06:44:27;13.30;;;10.83;;
32812;SDS011;19162;48.254;11.454;2023-03-31T06:47:27;13.73;;;11.93;;
32812;SDS011;19162;48.254;11.454;2023-03-31T06:50:27;12.02;;;8.20;;
32812;SDS011;19162;48.254;11.454;2023-03-31T06:53:27;13.60;;;8.88;;
32812;SDS011;19162;48.254;11.454;2023-03-31T06:56:28;9.17;;;8.10;;
32812;SDS011;19162;48.254;11.454;2023-03-31T06:59:28;34.50;;;31.27;;
32812;SDS011;19162;48.254;11.454;2023-03-31T07:02:28;17.50;;;15.75;;
32812;SDS011;19162;48.254;11.454;2023-03-31T07:05:29;54.08;;;49.28;;
32812;SDS011;19162;48.254;11.454;2023-03-31T07:08:29;27.63;;;25.33;;
32812;SDS011;19162;48.254;11.454;2023-03-31T07:11:30;11.98;;;10.52;;
32812;SDS011;19162;48.254;11.454;2023-03-31T07:14:30;9.45;;;7.93;;
32812;SDS011;19162;48.254;11.454;2023-03-31T07:17:30;17.42;;;15.90;;
32812;SDS011;19162;48.254;11.454;2023-03-31T07:20:31;9.87;;;7.97;;
32812;SDS011;19162;48.254;11.454;2023-03-31T07:23:31;12.45;;;11.25;;
32812;SDS011;19162;48.254;11.454;2023-03-31T07:26:31;14.23;;;8.85;;
32812;SDS011;19162;48.254;11.454;2023-03-31T07:29:32;19.02;;;17.17;;
32812;SDS011;19162;48.254;11.454;2023-03-31T07:32:32;9.75;;;8.75;;
32812;SDS011;19162;48.254;11.454;2023-03-31T07:35:33;14.25;;;10.68;;
32812;SDS011;19162;48.254;11.454;2023-03-31T07:38:33;16.83;;;15.10;;
32812;SDS011;19162;48.254;11.454;2023-03-31T07:41:33;9.80;;;8.50;;
32812;SDS011;19162;48.254;11.454;2023-03-31T07:44:34;9.75;;;8.75;;
32812;SDS011;19162;48.254;11.454;2023-03-31T07:47:34;12.10;;;9.18;;
32812;SDS011;19162;48.254;11.454;2023-03-31T07:50:35;8.63;;;7.63;;
32812;SDS011;19162;48.254;11.454;2023-03-31T07:53:35;8.23;;;7.43;;
32812;SDS011;19162;48.254;11.454;2023-03-31T07:56:35;12.33;;;7.97;;
32812;SDS011;19162;48.254;11.454;2023-03-31T07:59:36;10.88;;;7.53;;
32812;SDS011;19162;48.254;11.454;2023-03-31T08:02:37;7.97;;;7.05;;
32812;SDS011;19162;48.254;11.454;2023-03-31T08:05:37;9.02;;;7.90;;
32812;SDS011;19162;48.254;11.454;2023-03-31T08:08:37;10.07;;;7.90;;
32812;SDS011;19162;48.254;11.454;2023-03-31T08:11:42;8.35;;;6.97;;
32812;SDS011;19162;48.254;11.454;2023-03-31T08:14:42;8.77;;;7.57;;
32812;SDS011;19162;48.254;11.454;2023-03-31T08:17:42;9.70;;;7.97;;
32812;SDS011;19162;48.254;11.454;2023-03-31T08:20:42;9.60;;;7.30;;
32812;SDS011;19162;48.254;11.454;2023-03-31T08:23:42;10.48;;;8.05;;
32812;SDS011;19162;48.254;11.454;2023-03-31T08:26:43;9.68;;;8.50;;
32812;SDS011;19162;48.254;11.454;2023-03-31T08:29:43;9.95;;;7.80;;
32812;SDS011;19162;48.254;11.454;2023-03-31T08:32:43;10.03;;;7.23;;
32812;SDS011;19162;48.254;11.454;2023-03-31T08:35:43;9.50;;;7.63;;
32812;SDS011;19162;48.254;11.454;2023-03-31T08:38:43;10.03;;;8.87;;
32812;SDS011;19162;48.254;11.454;2023-03-31T08:41:59;11.02;;;8.85;;
32812;SDS011;19162;48.254;11.454;2023-03-31T08:45:10;9.57;;;8.60;;
32812;SDS011;19162;48.254;11.454;2023-03-31T08:48:20;10.45;;;8.82;;
32812;SDS011;19162;48.254;11.454;2023-03-31T08:51:31;7.93;;;7.13;;
32812;SDS011;19162;48.254;11.454;2023-03-31T08:54:33;8.48;;;5.95;;
32812;SDS011;19162;48.254;11.454;2023-03-31T08:57:59;6.32;;;5.05;;
32812;SDS011;19162;48.254;11.454;2023-03-31T09:00:57;4.60;;;4.20;;
32812;SDS011;19162;48.254;11.454;2023-03-31T09:16:58;5.10;;;3.67;;
32812;SDS011;19162;48.254;11.454;2023-03-31T09:20:11;6.50;;;3.70;;
32812;SDS011;19162;48.254;11.454;2023-03-31T09:26:19;6.15;;;3.40;;
32812;SDS011;19162;48.254;11.454;2023-03-31T09:32:28;4.03;;;3.35;;
32812;SDS011;19162;48.254;11.454;2023-03-31T09:35:29;3.72;;;3.22;;
32812;SDS011;19162;48.254;11.454;2023-03-31T09:38:32;6.03;;;3.30;;
32812;SDS011;19162;48.254;11.454;2023-03-31T09:41:32;4.63;;;3.22;;
32812;SDS011;19162;48.254;11.454;2023-03-31T09:44:36;8.90;;;3.40;;
32812;SDS011;19162;48.254;11.454;2023-03-31T09:47:39;2.95;;;2.25;;
32812;SDS011;19162;48.254;11.454;2023-03-31T09:50:45;3.38;;;3.08;;
32812;SDS011;19162;48.254;11.454;2023-03-31T09:53:49;4.05;;;2.22;;
32812;SDS011;19162;48.254;11.454;2023-03-31T09:56:50;3.03;;;2.70;;
32812;SDS011;19162;48.254;11.454;2023-03-31T10:00:00;3.85;;;2.53;;
32812;SDS011;19162;48.254;11.454;2023-03-31T10:03:01;2.75;;;2.20;;
32812;SDS011;19162;48.254;11.454;2023-03-31T10:06:09;4.00;;;2.13;;
32812;SDS011;19162;48.254;11.454;2023-03-31T10:09:10;2.63;;;2.20;;
32812;SDS011;19162;48.254;11.454;2023-03-31T10:12:29;4.10;;;2.45;;
32812;SDS011;19162;48.254;11.454;2023-03-31T10:15:30;5.00;;;2.78;;
32812;SDS011;19162;48.254;11.454;2023-03-31T10:18:36;4.38;;;2.33;;
32812;SDS011;19162;48.254;11.454;2023-03-31T10:21:37;1.95;;;1.77;;
32812;SDS011;19162;48.254;11.454;2023-03-31T10:24:38;3.65;;;2.67;;
32812;SDS011;19162;48.254;11.454;2023-03-31T10:27:39;2.67;;;2.17;;
32812;SDS011;19162;48.254;11.454;2023-03-31T10:30:41;3.92;;;2.40;;
32812;SDS011;19162;48.254;11.454;2023-03-31T10:33:47;4.05;;;2.13;;
32812;SDS011;19162;48.254;11.454;2023-03-31T10:36:49;2.72;;;2.40;;
32812;SDS011;19162;48.254;11.454;2023-03-31T10:40:04;2.83;;;2.07;;
32812;SDS011;19162;48.254;11.454;2023-03-31T10:43:15;4.72;;;2.33;;
32812;SDS011;19162;48.254;11.454;2023-03-31T10:46:16;3.03;;;1.77;;
32812;SDS011;19162;48.254;11.454;2023-03-31T10:52:24;2.10;;;1.90;;
32812;SDS011;19162;48.254;11.454;2023-03-31T10:55:26;4.22;;;2.10;;
32812;SDS011;19162;48.254;11.454;2023-03-31T11:11:01;2.22;;;1.60;;
32812;SDS011;19162;48.254;11.454;2023-03-31T11:20:14;2.63;;;1.90;;
32812;SDS011;19162;48.254;11.454;2023-03-31T11:29:39;1.95;;;1.35;;
32812;SDS011;19162;48.254;11.454;2023-03-31T11:32:47;3.65;;;1.60;;
32812;SDS011;19162;48.254;11.454;2023-03-31T11:42:04;4.28;;;1.52;;
32812;SDS011;19162;48.254;11.454;2023-03-31T11:45:12;3.63;;;1.17;;
32812;SDS011;19162;48.254;11.454;2023-03-31T11:48:22;1.75;;;1.13;;
32812;SDS011;19162;48.254;11.454;2023-03-31T11:51:26;0.93;;;0.93;;
32812;SDS011;19162;48.254;11.454;2023-03-31T12:00:35;1.52;;;1.13;;
32812;SDS011;19162;48.254;11.454;2023-03-31T12:06:40;1.80;;;1.10;;
32812;SDS011;19162;48.254;11.454;2023-03-31T12:09:53;3.28;;;1.30;;
32812;SDS011;19162;48.254;11.454;2023-03-31T12:12:54;1.45;;;1.20;;
32812;SDS011;19162;48.254;11.454;2023-03-31T12:15:57;3.65;;;1.42;;
32812;SDS011;19162;48.254;11.454;2023-03-31T12:25:12;3.75;;;1.20;;
32812;SDS011;19162;48.254;11.454;2023-03-31T12:28:13;2.70;;;1.40;;
32812;SDS011;19162;48.254;11.454;2023-03-31T12:31:17;3.33;;;1.15;;
32812;SDS011;19162;48.254;11.454;2023-03-31T12:34:18;2.08;;;1.20;;
32812;SDS011;19162;48.254;11.454;2023-03-31T12:37:23;2.05;;;1.33;;
32812;SDS011;19162;48.254;11.454;2023-03-31T12:40:45;2.33;;;1.27;;
32812;SDS011;19162;48.254;11.454;2023-03-31T12:56:15;3.40;;;1.00;;
32812;SDS011;19162;48.254;11.454;2023-03-31T12:59:24;3.15;;;1.80;;
32812;SDS011;19162;48.254;11.454;2023-03-31T13:02:28;4.38;;;2.00;;
32812;SDS011;19162;48.254;11.454;2023-03-31T13:08:47;3.80;;;1.45;;
32812;SDS011;19162;48.254;11.454;2023-03-31T13:11:48;4.78;;;2.17;;
32812;SDS011;19162;48.254;11.454;2023-03-31T13:14:49;3.50;;;1.90;;
32812;SDS011;19162;48.254;11.454;2023-03-31T13:18:03;3.20;;;1.40;;
32812;SDS011;19162;48.254;11.454;2023-03-31T13:21:04;2.22;;;1.05;;
32812;SDS011;19162;48.254;11.454;2023-03-31T13:24:06;3.00;;;1.08;;
32812;SDS011;19162;48.254;11.454;2023-03-31T13:36:48;2.42;;;1.35;;
32812;SDS011;19162;48.254;11.454;2023-03-31T13:40:07;3.67;;;1.20;;
32812;SDS011;19162;48.254;11.454;2023-03-31T13:43:26;3.22;;;1.17;;
32812;SDS011;19162;48.254;11.454;2023-03-31T13:46:46;1.70;;;1.13;;
32812;SDS011;19162;48.254;11.454;2023-03-31T13:49:51;21.80;;;1.67;;
32812;SDS011;19162;48.254;11.454;2023-03-31T13:52:57;3.33;;;1.42;;
32812;SDS011;19162;48.254;11.454;2023-03-31T13:56:11;2.00;;;1.17;;
32812;SDS011;19162;48.254;11.454;2023-03-31T14:11:46;2.17;;;1.30;;
32812;SDS011;19162;48.254;11.454;2023-03-31T14:14:46;2.47;;;1.47;;
32812;SDS011;19162;48.254;11.454;2023-03-31T14:17:47;4.53;;;2.63;;
32812;SDS011;19162;48.254;11.454;2023-03-31T14:20:57;5.30;;;1.70;;
32812;SDS011;19162;48.254;11.454;2023-03-31T14:24:18;4.18;;;1.70;;
32812;SDS011;19162;48.254;11.454;2023-03-31T14:36:51;5.95;;;1.52;;
32812;SDS011;19162;48.254;11.454;2023-03-31T14:39:56;3.13;;;1.55;;
32812;SDS011;19162;48.254;11.454;2023-03-31T14:42:57;4.05;;;1.58;;
32812;SDS011;19162;48.254;11.454;2023-03-31T14:46:01;2.20;;;1.02;;
32812;SDS011;19162;48.254;11.454;2023-03-31T14:49:06;3.30;;;1.17;;
32812;SDS011;19162;48.254;11.454;2023-03-31T14:52:16;1.50;;;0.73;;
32812;SDS011;19162;48.254;11.454;2023-03-31T14:55:20;2.58;;;1.00;;
32812;SDS011;19162;48.254;11.454;2023-03-31T14:58:23;2.78;;;0.95;;
32812;SDS011;19162;48.254;11.454;2023-03-31T15:01:27;3.10;;;1.38;;
32812;SDS011;19162;48.254;11.454;2023-03-31T15:04:29;3.00;;;2.13;;
32812;SDS011;19162;48.254;11.454;2023-03-31T15:07:29;3.00;;;2.60;;
32812;SDS011;19162;48.254;11.454;2023-03-31T15:10:39;0.82;;;0.57;;
32812;SDS011;19162;48.254;11.454;2023-03-31T15:16:43;2.45;;;0.80;;
32812;SDS011;19162;48.254;11.454;2023-03-31T15:19:43;1.52;;;1.00;;
32812;SDS011;19162;48.254;11.454;2023-03-31T15:22:44;1.35;;;1.10;;
32812;SDS011;19162;48.254;11.454;2023-03-31T15:25:44;3.38;;;1.73;;
32812;SDS011;19162;48.254;11.454;2023-03-31T15:28:48;1.90;;;0.80;;
32812;SDS011;19162;48.254;11.454;2023-03-31T15:31:49;1.77;;;1.50;;
32812;SDS011;19162;48.254;11.454;2023-03-31T15:34:49;2.33;;;1.15;;
32812;SDS011;19162;48.254;11.454;2023-03-31T15:37:50;2.17;;;1.33;;
32812;SDS011;19162;48.254;11.454;2023-03-31T15:40:52;2.75;;;1.40;;
32812;SDS011;19162;48.254;11.454;2023-03-31T15:44:06;1.90;;;1.58;;
32812;SDS011;19162;48.254;11.454;2023-03-31T15:47:11;1.65;;;1.00;;
32812;SDS011;19162;48.254;11.454;2023-03-31T15:50:12;5.53;;;4.95;;
32812;SDS011;19162;48.254;11.454;2023-03-31T15:53:47;2.53;;;1.50;;
32812;SDS011;19162;48.254;11.454;2023-03-31T15:56:43;2.30;;;1.40;;
32812;SDS011;19162;48.254;11.454;2023-03-31T15:59:48;3.38;;;1.42;;
32812;SDS011;19162;48.254;11.454;2023-03-31T16:02:49;2.67;;;1.45;;
32812;SDS011;19162;48.254;11.454;2023-03-31T16:05:56;3.05;;;1.10;;
32812;SDS011;19162;48.254;11.454;2023-03-31T16:08:57;2.30;;;1.33;;
32812;SDS011;19162;48.254;11.454;2023-03-31T16:11:58;2.03;;;1.40;;
32812;SDS011;19162;48.254;11.454;2023-03-31T16:15:02;1.80;;;1.02;;
32812;SDS011;19162;48.254;11.454;2023-03-31T16:18:07;3.55;;;1.48;;
32812;SDS011;19162;48.254;11.454;2023-03-31T16:21:08;1.98;;;1.40;;
32812;SDS011;19162;48.254;11.454;2023-03-31T16:24:09;3.55;;;1.80;;
32812;SDS011;19162;48.254;11.454;2023-03-31T16:27:10;2.20;;;1.23;;
32812;SDS011;19162;48.254;11.454;2023-03-31T16:30:12;3.33;;;1.30;;
32812;SDS011;19162;48.254;11.454;2023-03-31T16:33:16;3.53;;;1.10;;
32812;SDS011;19162;48.254;11.454;2023-03-31T16:36:17;3.45;;;1.10;;
32812;SDS011;19162;48.254;11.454;2023-03-31T16:39:17;2.92;;;1.65;;
32812;SDS011;19162;48.254;11.454;2023-03-31T16:42:18;2.87;;;1.70;;
32812;SDS011;19162;48.254;11.454;2023-03-31T16:45:18;2.53;;;1.73;;
32812;SDS011;19162;48.254;11.454;2023-03-31T16:48:20;2.28;;;1.15;;
32812;SDS011;19162;48.254;11.454;2023-03-31T16:51:21;4.22;;;1.65;;
32812;SDS011;19162;48.254;11.454;2023-03-31T16:54:22;3.33;;;1.85;;
32812;SDS011;19162;48.254;11.454;2023-03-31T16:57:22;3.63;;;1.43;;
32812;SDS011;19162;48.254;11.454;2023-03-31T17:00:22;2.45;;;1.58;;
32812;SDS011;19162;48.254;11.454;2023-03-31T17:03:23;2.75;;;1.05;;
32812;SDS011;19162;48.254;11.454;2023-03-31T17:06:23;1.92;;;0.90;;
32812;SDS011;19162;48.254;11.454;2023-03-31T17:09:23;3.90;;;1.33;;
32812;SDS011;19162;48.254;11.454;2023-03-31T17:12:23;1.30;;;0.53;;
32812;SDS011;19162;48.254;11.454;2023-03-31T17:15:24;2.08;;;0.90;;
32812;SDS011;19162;48.254;11.454;2023-03-31T17:18:24;0.83;;;0.83;;
32812;SDS011;19162;48.254;11.454;2023-03-31T17:21:26;2.83;;;1.05;;
32812;SDS011;19162;48.254;11.454;2023-03-31T17:24:27;2.15;;;1.35;;
32812;SDS011;19162;48.254;11.454;2023-03-31T17:27:27;4.40;;;4.00;;
32812;SDS011;19162;48.254;11.454;2023-03-31T17:30:27;3.58;;;2.38;;
32812;SDS011;19162;48.254;11.454;2023-03-31T17:33:28;1.77;;;1.02;;
32812;SDS011;19162;48.254;11.454;2023-03-31T17:36:28;1.90;;;0.80;;
32812;SDS011;19162;48.254;11.454;2023-03-31T17:39:28;6.97;;;6.27;;
32812;SDS011;19162;48.254;11.454;2023-03-31T17:42:29;0.50;;;0.50;;
32812;SDS011;19162;48.254;11.454;2023-03-31T17:45:29;1.23;;;0.93;;
32812;SDS011;19162;48.254;11.454;2023-03-31T17:48:31;1.95;;;1.08;;
32812;SDS011;19162;48.254;11.454;2023-03-31T17:51:33;1.20;;;1.03;;
32812;SDS011;19162;48.254;11.454;2023-03-31T17:54:34;0.88;;;0.60;;
32812;SDS011;19162;48.254;11.454;2023-03-31T17:57:35;0.75;;;0.75;;
32812;SDS011;19162;48.254;11.454;2023-03-31T18:00:36;0.82;;;0.73;;
32812;SDS011;19162;48.254;11.454;2023-03-31T18:03:36;2.30;;;1.67;;
32812;SDS011;19162;48.254;11.454;2023-03-31T18:06:37;2.22;;;1.50;;
32812;SDS011;19162;48.254;11.454;2023-03-31T18:09:37;2.42;;;0.90;;
32812;SDS011;19162;48.254;11.454;2023-03-31T18:12:38;1.88;;;1.60;;
32812;SDS011;19162;48.254;11.454;2023-03-31T18:15:44;2.40;;;2.00;;
32812;SDS011;19162;48.254;11.454;2023-03-31T18:18:44;1.75;;;1.42;;
32812;SDS011;19162;48.254;11.454;2023-03-31T18:21:45;2.60;;;2.40;;
32812;SDS011;19162;48.254;11.454;2023-03-31T18:24:45;3.15;;;1.80;;
32812;SDS011;19162;48.254;11.454;2023-03-31T18:27:46;3.70;;;1.95;;
32812;SDS011;19162;48.254;11.454;2023-03-31T18:30:48;2.03;;;1.77;;
32812;SDS011;19162;48.254;11.454;2023-03-31T18:33:48;1.83;;;1.57;;
32812;SDS011;19162;48.254;11.454;2023-03-31T18:36:48;2.83;;;2.13;;
32812;SDS011;19162;48.254;11.454;2023-03-31T18:39:48;4.97;;;3.90;;
32812;SDS011;19162;48.254;11.454;2023-03-31T18:42:48;3.73;;;2.60;;
32812;SDS011;19162;48.254;11.454;2023-03-31T18:45:51;3.30;;;2.88;;
32812;SDS011;19162;48.254;11.454;2023-03-31T18:48:52;5.55;;;4.05;;
32812;SDS011;19162;48.254;11.454;2023-03-31T18:51:52;2.00;;;1.80;;
32812;SDS011;19162;48.254;11.454;2023-03-31T18:54:53;3.30;;;1.33;;
32812;SDS011;19162;48.254;11.454;2023-03-31T18:57:53;2.33;;;1.50;;
32812;SDS011;19162;48.254;11.454;2023-03-31T19:00:53;3.00;;;1.67;;
32812;SDS011;19162;48.254;11.454;2023-03-31T19:03:53;1.17;;;1.03;;
32812;SDS011;19162;48.254;11.454;2023-03-31T19:06:53;1.33;;;1.17;;
32812;SDS011;19162;48.254;11.454;2023-03-31T19:09:55;1.75;;;1.23;;
32812;SDS011;19162;48.254;11.454;2023-03-31T19:12:55;1.67;;;1.02;;
32812;SDS011;19162;48.254;11.454;2023-03-31T19:15:55;0.82;;;0.68;;
32812;SDS011;19162;48.254;11.454;2023-03-31T19:18:56;1.70;;;1.00;;
32812;SDS011;19162;48.254;11.454;2023-03-31T19:21:56;2.83;;;1.20;;
32812;SDS011;19162;48.254;11.454;2023-03-31T19:24:57;1.73;;;1.00;;
32812;SDS011;19162;48.254;11.454;2023-03-31T19:27:57;2.07;;;1.17;;
32812;SDS011;19162;48.254;11.454;2023-03-31T19:30:58;2.97;;;1.10;;
32812;SDS011;19162;48.254;11.454;2023-03-31T19:33:58;2.13;;;1.05;;
32812;SDS011;19162;48.254;11.454;2023-03-31T19:36:58;3.45;;;1.02;;
32812;SDS011;19162;48.254;11.454;2023-03-31T19:40:00;3.08;;;1.30;;
32812;SDS011;19162;48.254;11.454;2023-03-31T19:43:02;3.97;;;1.33;;
32812;SDS011;19162;48.254;11.454;2023-03-31T19:46:02;1.67;;;1.50;;
32812;SDS011;19162;48.254;11.454;2023-03-31T19:49:03;2.33;;;1.35;;
32812;SDS011;19162;48.254;11.454;2023-03-31T19:52:03;5.07;;;1.00;;
32812;SDS011;19162;48.254;11.454;2023-03-31T19:55:04;2.83;;;1.30;;
32812;SDS011;19162;48.254;11.454;2023-03-31T19:58:04;2.40;;;1.42;;
32812;SDS011;19162;48.254;11.454;2023-03-31T20:01:07;2.35;;;1.30;;
32812;SDS011;19162;48.254;11.454;2023-03-31T20:04:07;2.83;;;1.25;;
32812;SDS011;19162;48.254;11.454;2023-03-31T20:07:07;2.92;;;1.42;;
32812;SDS011;19162;48.254;11.454;2023-03-31T20:10:07;3.63;;;1.55;;
32812;SDS011;19162;48.254;11.454;2023-03-31T20:13:10;3.13;;;1.40;;
32812;SDS011;19162;48.254;11.454;2023-03-31T20:16:11;4.47;;;1.80;;
32812;SDS011;19162;48.254;11.454;2023-03-31T20:19:12;5.30;;;1.60;;
32812;SDS011;19162;48.254;11.454;2023-03-31T20:22:15;3.58;;;3.08;;
32812;SDS011;19162;48.254;11.454;2023-03-31T20:25:15;4.20;;;2.42;;
32812;SDS011;19162;48.254;11.454;2023-03-31T20:28:15;4.77;;;3.33;;
32812;SDS011;19162;48.254;11.454;2023-03-31T20:31:20;3.93;;;1.37;;
32812;SDS011;19162;48.254;11.454;2023-03-31T20:34:20;4.57;;;1.63;;
32812;SDS011;19162;48.254;11.454;2023-03-31T20:37:22;5.40;;;1.80;;
32812;SDS011;19162;48.254;11.454;2023-03-31T20:40:22;4.10;;;1.17;;
32812;SDS011;19162;48.254;11.454;2023-03-31T20:43:23;3.55;;;1.92;;
32812;SDS011;19162;48.254;11.454;2023-03-31T20:46:23;3.42;;;1.60;;
32812;SDS011;19162;48.254;11.454;2023-03-31T20:49:23;4.18;;;1.30;;